createdAt,value
2018-09-05T00:02:17.796Z,5.00
2018-09-05T00:04:45.965Z,4.10
2018-09-05T00:07:14.148Z,3.80
2018-09-05T00:09:42.344Z,4.57
2018-09-05T00:12:10.526Z,4.50
2018-09-05T00:14:38.689Z,3.50
2018-09-05T00:17:06.997Z,3.70
2018-09-05T00:19:35.182Z,3.60
2018-09-05T00:22:04.148Z,3.30
2018-09-05T00:24:32.448Z,3.43
2018-09-05T00:27:00.637Z,4.30
2018-09-05T00:29:28.808Z,3.27
2018-09-05T00:31:56.985Z,3.53
2018-09-05T00:34:25.174Z,3.70
2018-09-05T00:36:53.352Z,4.13
2018-09-05T00:39:21.805Z,4.17
2018-09-05T00:41:50.069Z,5.83
2018-09-05T00:44:18.227Z,4.23
2018-09-05T00:46:46.403Z,4.90
2018-09-05T00:49:14.569Z,6.23
2018-09-05T00:51:42.745Z,5.47
2018-09-05T00:54:10.926Z,4.37
2018-09-05T00:56:39.093Z,4.37
2018-09-05T00:59:07.277Z,4.33
2018-09-05T01:01:35.437Z,4.90
2018-09-05T01:04:03.616Z,4.30
2018-09-05T01:06:31.802Z,4.37
2018-09-05T01:08:59.972Z,5.20
2018-09-05T01:11:28.137Z,3.17
2018-09-05T01:13:56.338Z,3.73
2018-09-05T01:16:24.692Z,6.47
2018-09-05T01:18:52.884Z,5.50
2018-09-05T01:21:21.196Z,4.30
2018-09-05T01:23:49.400Z,4.77
2018-09-05T01:26:17.569Z,7.87
2018-09-05T01:28:45.736Z,5.27
2018-09-05T01:31:13.900Z,5.97
2018-09-05T01:33:42.100Z,5.50
2018-09-05T01:36:15.228Z,4.93
2018-09-05T01:38:43.731Z,6.03
2018-09-05T01:41:12.922Z,7.77
2018-09-05T01:43:41.923Z,4.40
2018-09-05T01:46:10.164Z,5.57
2018-09-05T01:48:38.684Z,8.13
2018-09-05T01:51:06.865Z,6.40
2018-09-05T01:53:35.041Z,5.30
2018-09-05T01:56:03.295Z,8.90
2018-09-05T01:58:31.556Z,4.87
2018-09-05T02:00:59.733Z,4.63
2018-09-05T02:03:27.910Z,5.27
2018-09-05T02:05:56.092Z,5.43
2018-09-05T02:08:24.313Z,6.53
2018-09-05T02:10:52.436Z,8.00
2018-09-05T02:13:20.612Z,6.40
2018-09-05T02:15:48.778Z,5.50
2018-09-05T02:18:16.946Z,8.53
2018-09-05T02:20:45.137Z,5.80
2018-09-05T02:23:13.352Z,7.60
2018-09-05T02:25:41.681Z,5.40
2018-09-05T02:28:09.851Z,5.10
2018-09-05T02:30:38.025Z,5.50
2018-09-05T02:33:06.484Z,6.23
2018-09-05T02:35:34.637Z,5.30
2018-09-05T02:38:36.199Z,4.53
2018-09-05T02:41:04.366Z,4.33
2018-09-05T02:43:38.077Z,3.97
2018-09-05T02:46:06.255Z,3.80
2018-09-05T02:48:34.429Z,4.07
2018-09-05T02:51:02.621Z,5.47
2018-09-05T02:53:30.795Z,5.93
2018-09-05T02:56:02.537Z,4.50
2018-09-05T02:58:31.970Z,3.87
2018-09-05T03:01:00.149Z,5.60
2018-09-05T03:03:28.547Z,4.20
2018-09-05T03:05:57.016Z,4.20
2018-09-05T03:08:25.400Z,4.17
2018-09-05T03:10:53.661Z,4.50
2018-09-05T03:13:22.185Z,4.07
2018-09-05T03:15:50.441Z,3.90
2018-09-05T03:18:18.645Z,3.60
2018-09-05T03:20:46.896Z,3.80
2018-09-05T03:23:15.175Z,3.60
2018-09-05T03:25:43.445Z,3.53
2018-09-05T03:28:11.732Z,4.13
2018-09-05T03:30:40.420Z,4.40
2018-09-05T03:33:08.734Z,3.90
2018-09-05T03:35:36.958Z,3.53
2018-09-05T03:38:05.232Z,3.73
2018-09-05T03:40:33.524Z,3.47
2018-09-05T03:43:01.796Z,3.47
2018-09-05T03:45:30.064Z,3.70
2018-09-05T03:47:58.872Z,4.00
2018-09-05T03:50:27.152Z,5.60
2018-09-05T03:52:55.410Z,6.80
2018-09-05T03:55:23.689Z,7.10
2018-09-05T03:57:51.972Z,8.77
2018-09-05T04:00:20.294Z,5.83
2018-09-05T04:02:48.517Z,6.20
2018-09-05T04:05:17.021Z,6.30
2018-09-05T04:07:45.265Z,5.37
2018-09-05T04:10:13.554Z,6.33
2018-09-05T04:12:42.410Z,5.40
2018-09-05T04:15:11.813Z,4.87
2018-09-05T04:17:39.998Z,8.47
2018-09-05T04:20:08.877Z,11.03
2018-09-05T04:22:37.083Z,9.90
2018-09-05T04:25:05.353Z,7.20
2018-09-05T04:27:33.896Z,5.37
2018-09-05T04:30:02.316Z,5.40
2018-09-05T04:32:30.590Z,6.47
2018-09-05T04:34:58.855Z,5.20
2018-09-05T04:37:27.140Z,5.90
2018-09-05T04:39:55.581Z,4.83
2018-09-05T04:42:24.119Z,4.70
2018-09-05T04:44:52.652Z,4.20
2018-09-05T04:47:21.207Z,5.00
2018-09-05T04:49:49.440Z,3.70
2018-09-05T04:52:17.793Z,4.07
2018-09-05T04:54:46.100Z,3.93
2018-09-05T04:57:14.363Z,6.70
2018-09-05T04:59:43.198Z,4.97
2018-09-05T05:02:11.433Z,4.43
2018-09-05T05:04:39.760Z,5.00
2018-09-05T05:07:08.040Z,4.93
2018-09-05T05:09:36.267Z,5.53
2018-09-05T05:12:04.540Z,3.53
2018-09-05T05:14:32.836Z,5.80
2018-09-05T05:17:01.530Z,6.80
2018-09-05T05:19:29.809Z,5.03
2018-09-05T05:21:58.046Z,5.57
2018-09-05T05:24:26.325Z,5.80
2018-09-05T05:26:54.604Z,6.43
2018-09-05T05:29:22.880Z,5.47
2018-09-05T05:31:51.057Z,5.40
2018-09-05T05:34:19.546Z,6.53
2018-09-05T05:36:47.835Z,5.43
2018-09-05T05:39:16.039Z,4.70
2018-09-05T05:41:44.275Z,9.43
2018-09-05T05:44:12.548Z,8.17
2018-09-05T05:46:40.886Z,6.13
2018-09-05T05:49:09.061Z,4.57
2018-09-05T05:51:37.279Z,4.67
2018-09-05T05:54:05.518Z,4.90
2018-09-05T05:56:33.757Z,5.00
2018-09-05T05:59:01.965Z,7.07
2018-09-05T06:01:30.169Z,5.37
2018-09-05T06:03:58.866Z,4.40
2018-09-05T06:06:27.199Z,4.47
2018-09-05T06:08:55.316Z,5.30
2018-09-05T06:11:23.575Z,5.80
2018-09-05T06:13:52.715Z,9.30
2018-09-05T06:16:21.800Z,9.53
2018-09-05T06:18:50.107Z,6.67
2018-09-05T06:21:18.309Z,5.60
2018-09-05T06:23:46.510Z,5.47
2018-09-05T06:26:14.696Z,5.03
2018-09-05T06:28:42.903Z,5.17
2018-09-05T06:31:11.487Z,5.80
2018-09-05T06:33:39.564Z,5.20
2018-09-05T06:36:07.757Z,7.43
2018-09-05T06:38:36.235Z,6.27
2018-09-05T06:41:04.552Z,7.63
2018-09-05T06:43:32.793Z,10.83
2018-09-05T06:46:00.972Z,7.90
2018-09-05T06:48:29.436Z,8.07
2018-09-05T06:51:03.057Z,7.57
2018-09-05T06:53:31.252Z,6.00
2018-09-05T06:55:59.432Z,6.53
2018-09-05T06:58:27.620Z,5.57
2018-09-05T07:00:55.809Z,7.33
2018-09-05T07:03:24.037Z,6.87
2018-09-05T07:05:52.401Z,8.33
2018-09-05T07:08:20.669Z,7.10
2018-09-05T07:10:48.905Z,8.77
2018-09-05T07:13:17.096Z,10.37
2018-09-05T07:15:45.293Z,7.67
2018-09-05T07:18:13.486Z,9.10
2018-09-05T07:20:41.668Z,8.00
2018-09-05T07:23:10.285Z,9.30
2018-09-05T07:25:38.527Z,8.13
2018-09-05T07:28:06.717Z,8.83
2018-09-05T07:30:34.935Z,7.23
2018-09-05T07:33:03.606Z,6.70
2018-09-05T07:35:31.792Z,8.10
2018-09-05T07:37:59.959Z,6.77
2018-09-05T07:40:28.293Z,7.10
2018-09-05T07:42:58.496Z,6.43
2018-09-05T07:45:26.731Z,6.40
2018-09-05T07:47:55.084Z,13.00
2018-09-05T07:50:23.286Z,10.00
2018-09-05T07:52:51.702Z,9.33
2018-09-05T07:55:19.901Z,11.50
2018-09-05T07:57:48.085Z,11.33
2018-09-05T08:00:16.277Z,11.20
2018-09-05T08:02:44.546Z,11.97
2018-09-05T08:05:12.708Z,11.90
2018-09-05T08:07:41.175Z,11.67
2018-09-05T08:10:09.425Z,12.03
2018-09-05T08:12:37.616Z,12.17
2018-09-05T08:15:05.986Z,9.70
2018-09-05T08:17:34.187Z,8.90
2018-09-05T08:20:02.451Z,9.93
2018-09-05T08:22:31.121Z,15.03
2018-09-05T08:24:59.331Z,16.60
2018-09-05T08:27:28.613Z,16.67
2018-09-05T08:29:56.866Z,13.90
2018-09-05T08:32:25.035Z,14.60
2018-09-05T08:34:53.385Z,14.57
2018-09-05T08:37:22.649Z,17.27
2018-09-05T08:39:50.934Z,15.13
2018-09-05T08:42:19.225Z,17.00
2018-09-05T08:44:47.721Z,17.40
2018-09-05T08:47:15.704Z,20.47
2018-09-05T08:49:43.881Z,25.57
2018-09-05T08:52:12.016Z,22.43
2018-09-05T08:54:40.196Z,31.07
2018-09-05T08:57:08.441Z,21.33
2018-09-05T08:59:36.636Z,31.17
2018-09-05T09:02:04.904Z,23.00
2018-09-05T09:04:33.254Z,25.70
2018-09-05T09:07:01.401Z,33.07
2018-09-05T09:09:29.983Z,35.50
2018-09-05T09:11:59.668Z,38.13
2018-09-05T09:14:28.337Z,33.10
2018-09-05T09:16:56.850Z,34.97
2018-09-05T09:19:25.084Z,27.77
2018-09-05T09:21:53.398Z,25.13
2018-09-05T09:24:22.160Z,24.90
2018-09-05T09:26:50.744Z,26.43
2018-09-05T09:29:19.153Z,30.10
2018-09-05T09:31:48.341Z,26.47
2018-09-05T09:34:16.685Z,23.20
2018-09-05T09:36:44.880Z,26.40
2018-09-05T09:39:13.847Z,28.90
2018-09-05T09:41:42.220Z,23.33
2018-09-05T09:44:10.659Z,20.90
2018-09-05T09:46:39.465Z,16.90
2018-09-05T09:49:08.247Z,17.73
2018-09-05T09:51:36.747Z,19.60
2018-09-05T09:54:05.753Z,21.17
2018-09-05T09:56:34.271Z,23.53
2018-09-05T09:59:02.784Z,21.57
2018-09-05T10:01:36.141Z,23.63
2018-09-05T10:04:09.926Z,28.17
2018-09-05T10:06:46.314Z,25.37
2018-09-05T10:09:20.383Z,26.13
2018-09-05T10:11:54.546Z,24.10
2018-09-05T10:14:28.288Z,24.53
2018-09-05T10:17:01.853Z,21.07
2018-09-05T10:19:30.167Z,21.03
2018-09-05T10:21:58.400Z,18.30
2018-09-05T10:24:26.740Z,21.63
2018-09-05T10:26:55.220Z,19.67
2018-09-05T10:29:23.680Z,17.03
2018-09-05T10:31:52.096Z,16.23
2018-09-05T10:34:20.297Z,19.53
2018-09-05T10:36:48.508Z,22.93
2018-09-05T10:39:17.360Z,25.17
2018-09-05T10:41:45.564Z,25.73
2018-09-05T10:44:13.834Z,23.40
2018-09-05T10:46:42.172Z,20.30
2018-09-05T10:49:10.905Z,18.87
2018-09-05T10:51:44.724Z,23.70
2018-09-05T10:54:14.198Z,23.07
2018-09-05T10:56:42.694Z,23.63
2018-09-05T10:59:11.553Z,22.57
2018-09-05T11:01:41.534Z,17.63
2018-09-05T11:04:10.022Z,16.00
2018-09-05T11:06:38.217Z,22.53
2018-09-05T11:09:08.829Z,19.77
2018-09-05T11:11:37.074Z,18.07
2018-09-05T11:14:05.464Z,24.97
2018-09-05T11:16:33.681Z,21.53
2018-09-05T11:19:01.869Z,25.63
2018-09-05T11:21:30.065Z,28.57
2018-09-05T11:23:58.700Z,23.27
2018-09-05T11:26:26.892Z,26.90
2018-09-05T11:28:55.764Z,31.60
2018-09-05T11:31:24.070Z,26.37
2018-09-05T11:33:52.264Z,32.20
2018-09-05T11:36:20.464Z,28.57
2018-09-05T11:38:48.672Z,28.47
2018-09-05T11:41:16.868Z,25.10
2018-09-05T11:43:45.169Z,29.27
2018-09-05T11:46:13.360Z,23.73
2018-09-05T11:48:41.820Z,27.47
2018-09-05T11:51:10.179Z,33.93
2018-09-05T11:53:39.348Z,36.27
2018-09-05T11:56:07.548Z,29.40
2018-09-05T11:58:35.884Z,28.07
2018-09-05T12:01:05.509Z,33.63
2018-09-05T12:03:33.740Z,29.77
2018-09-05T12:06:02.127Z,31.63
2018-09-05T12:08:30.326Z,28.17
2018-09-05T12:10:58.551Z,30.23
2018-09-05T12:13:26.740Z,27.17
2018-09-05T12:15:55.556Z,31.77
2018-09-05T12:18:23.761Z,32.43
2018-09-05T12:20:51.953Z,26.83
2018-09-05T12:23:20.290Z,24.00
2018-09-05T12:25:48.492Z,19.00
2018-09-05T12:28:16.674Z,20.93
2018-09-05T12:30:44.861Z,18.63
2018-09-05T12:33:13.069Z,20.60
2018-09-05T12:35:41.317Z,18.33
2018-09-05T12:38:09.647Z,17.57
2018-09-05T12:40:37.845Z,15.63
2018-09-05T12:43:06.455Z,13.90
2018-09-05T12:45:34.779Z,12.50
2018-09-05T12:48:02.945Z,10.87
2018-09-05T12:50:31.169Z,11.50
2018-09-05T12:52:59.357Z,14.93
2018-09-05T12:55:27.547Z,13.70
2018-09-05T12:57:55.734Z,16.77
2018-09-05T13:00:23.942Z,19.47
2018-09-05T13:02:52.132Z,22.53
2018-09-05T13:05:20.355Z,19.60
2018-09-05T13:07:48.520Z,19.07
2018-09-05T13:10:16.705Z,20.73
2018-09-05T13:12:44.887Z,17.27
2018-09-05T13:15:13.187Z,21.30
2018-09-05T13:17:41.958Z,25.43
2018-09-05T13:20:10.144Z,22.17
2018-09-05T13:22:38.371Z,19.93
2018-09-05T13:25:06.563Z,17.73
2018-09-05T13:27:34.754Z,16.47
2018-09-05T13:30:02.920Z,17.47
2018-09-05T13:32:38.868Z,20.43
2018-09-05T13:35:07.349Z,18.17
2018-09-05T13:37:36.687Z,17.50
2018-09-05T13:40:06.163Z,17.47
2018-09-05T13:42:34.702Z,15.43
2018-09-05T13:45:03.158Z,16.27
2018-09-05T13:47:31.660Z,15.97
2018-09-05T13:50:00.075Z,12.80
2018-09-05T13:52:28.266Z,12.30
2018-09-05T13:54:56.444Z,9.67
2018-09-05T13:57:24.647Z,12.93
2018-09-05T13:59:52.843Z,12.63
2018-09-05T14:02:21.255Z,12.83
2018-09-05T14:04:50.274Z,13.60
2018-09-05T14:07:19.106Z,11.43
2018-09-05T14:09:48.070Z,14.90
2018-09-05T14:12:16.405Z,11.97
2018-09-05T14:14:44.661Z,11.93
2018-09-05T14:17:13.517Z,8.43
2018-09-05T14:19:42.114Z,10.70
2018-09-05T14:22:10.718Z,13.47
2018-09-05T14:24:39.023Z,14.87
2018-09-05T14:27:07.625Z,14.30
2018-09-05T14:29:35.826Z,15.47
2018-09-05T14:32:04.013Z,13.20
2018-09-05T14:34:32.282Z,12.70
2018-09-05T14:37:00.548Z,15.70
2018-09-05T14:39:28.747Z,14.30
2018-09-05T14:41:56.940Z,17.37
2018-09-05T14:44:25.562Z,13.33
2018-09-05T14:46:53.793Z,11.63
2018-09-05T14:49:21.992Z,16.47
2018-09-05T14:51:51.357Z,14.10
2018-09-05T14:54:19.954Z,16.27
2018-09-05T14:56:48.240Z,18.30
2018-09-05T14:59:16.575Z,14.90
2018-09-05T15:01:45.084Z,12.37
2018-09-05T15:04:13.473Z,13.10
2018-09-05T15:06:42.129Z,20.70
2018-09-05T15:09:12.384Z,16.20
2018-09-05T15:11:40.696Z,16.47
2018-09-05T15:14:09.667Z,12.80
2018-09-05T15:16:37.966Z,14.53
2018-09-05T15:19:06.441Z,18.97
2018-09-05T15:21:34.880Z,17.63
2018-09-05T15:24:03.057Z,16.30
2018-09-05T15:26:31.255Z,13.20
2018-09-05T15:28:59.429Z,14.77
2018-09-05T15:31:27.761Z,13.73
2018-09-05T15:33:56.538Z,11.57
2018-09-05T15:36:25.642Z,11.30
2018-09-05T15:38:54.337Z,14.47
2018-09-05T15:41:23.009Z,12.53
2018-09-05T15:43:51.198Z,13.50
2018-09-05T15:46:19.386Z,12.23
2018-09-05T15:48:47.600Z,12.37
2018-09-05T15:51:15.781Z,11.03
2018-09-05T15:53:44.015Z,11.53
2018-09-05T15:56:12.240Z,11.17
2018-09-05T15:58:40.453Z,11.57
2018-09-05T16:01:08.707Z,9.77
2018-09-05T16:03:36.909Z,12.20
2018-09-05T16:06:05.118Z,10.63
2018-09-05T16:08:33.308Z,10.13
2018-09-05T16:11:01.489Z,8.93
2018-09-05T16:13:30.318Z,8.80
2018-09-05T16:15:58.523Z,6.47
2018-09-05T16:18:26.745Z,5.90
2018-09-05T16:20:54.949Z,5.37
2018-09-05T16:23:23.145Z,5.80
2018-09-05T16:25:51.363Z,6.63
2018-09-05T16:28:19.684Z,8.43
2018-09-05T16:30:48.511Z,7.37
2018-09-05T16:33:16.736Z,7.87
2018-09-05T16:35:44.987Z,5.80
2018-09-05T16:38:13.196Z,5.90
2018-09-05T16:40:42.093Z,6.70
2018-09-05T16:43:10.280Z,8.93
2018-09-05T16:45:38.465Z,7.10
2018-09-05T16:48:06.920Z,9.40
2018-09-05T16:50:37.973Z,5.43
2018-09-05T16:53:06.694Z,5.50
2018-09-05T16:55:34.880Z,5.37
2018-09-05T16:58:03.092Z,5.80
2018-09-05T17:00:31.270Z,4.77
2018-09-05T17:02:59.479Z,4.47
2018-09-05T17:05:27.673Z,4.50
2018-09-05T17:07:56.891Z,4.13
2018-09-05T17:10:25.254Z,4.07
2018-09-05T17:12:53.448Z,4.50
2018-09-05T17:15:21.637Z,4.40
2018-09-05T17:17:49.862Z,4.10
2018-09-05T17:20:18.096Z,5.97
2018-09-05T17:22:47.934Z,4.03
2018-09-05T17:25:17.323Z,5.13
2018-09-05T17:27:46.105Z,7.13
2018-09-05T17:30:15.296Z,6.50
2018-09-05T17:32:44.456Z,6.50
2018-09-05T17:35:12.717Z,6.13
2018-09-05T17:37:42.641Z,16.47
2018-09-05T17:40:12.437Z,12.77
2018-09-05T17:42:41.680Z,10.60
2018-09-05T17:45:11.465Z,10.67
2018-09-05T17:47:40.802Z,8.83
2018-09-05T17:50:09.000Z,7.90
2018-09-05T17:52:38.363Z,8.00
2018-09-05T17:55:07.472Z,7.10
2018-09-05T17:57:37.626Z,6.07
2018-09-05T18:00:07.191Z,5.77
2018-09-05T18:02:35.396Z,8.20
2018-09-05T18:05:05.035Z,6.27
2018-09-05T18:07:34.387Z,8.87
2018-09-05T18:10:03.636Z,7.40
2018-09-05T18:12:33.003Z,7.90
2018-09-05T18:15:02.866Z,5.30
2018-09-05T18:17:32.260Z,7.43
2018-09-05T18:20:01.650Z,12.20
2018-09-05T18:22:30.864Z,13.00
2018-09-05T18:25:00.304Z,11.30
2018-09-05T18:27:29.424Z,14.57
2018-09-05T18:29:59.608Z,9.53
2018-09-05T18:32:28.484Z,9.43
2018-09-05T18:34:57.683Z,8.23
2018-09-05T18:37:25.890Z,7.13
2018-09-05T18:39:57.038Z,8.93
2018-09-05T18:42:26.303Z,7.37
2018-09-05T18:44:54.519Z,6.70
2018-09-05T18:47:22.740Z,9.50
2018-09-05T18:49:50.929Z,8.40
2018-09-05T18:52:19.102Z,8.47
2018-09-05T18:54:47.331Z,8.47
2018-09-05T18:57:15.460Z,7.13
2018-09-05T18:59:44.505Z,9.80
2018-09-05T19:02:12.780Z,12.63
2018-09-05T19:04:41.559Z,9.83
2018-09-05T19:07:09.766Z,9.13
2018-09-05T19:09:38.041Z,11.57
2018-09-05T19:12:06.260Z,9.87
2018-09-05T19:14:34.442Z,8.67
2018-09-05T19:17:02.620Z,7.73
2018-09-05T19:19:30.808Z,10.80
2018-09-05T19:21:58.996Z,8.30
2018-09-05T19:24:27.171Z,6.60
2018-09-05T19:26:55.837Z,6.47
2018-09-05T19:29:24.065Z,6.73
2018-09-05T19:31:53.300Z,11.70
2018-09-05T19:34:21.649Z,16.37
2018-09-05T19:36:49.856Z,15.77
2018-09-05T19:39:18.036Z,19.87
2018-09-05T19:41:46.515Z,11.53
2018-09-05T19:44:14.788Z,11.30
2018-09-05T19:46:42.985Z,8.50
2018-09-05T19:49:11.258Z,9.87
2018-09-05T19:51:39.926Z,9.97
2018-09-05T19:54:08.127Z,10.27
2018-09-05T19:56:36.327Z,11.33
2018-09-05T19:59:04.632Z,11.97
2018-09-05T20:01:38.468Z,15.03
2018-09-05T20:04:06.669Z,15.67
2018-09-05T20:06:35.143Z,15.50
2018-09-05T20:09:03.371Z,13.87
2018-09-05T20:11:31.629Z,12.70
2018-09-05T20:13:59.823Z,9.53
2018-09-05T20:16:28.035Z,14.67
2018-09-05T20:18:56.208Z,12.20
2018-09-05T20:21:24.405Z,23.03
2018-09-05T20:23:53.153Z,16.83
2018-09-05T20:26:21.359Z,11.27
2018-09-05T20:28:49.540Z,10.00
2018-09-05T20:31:17.752Z,12.33
2018-09-05T20:33:46.021Z,22.30
2018-09-05T20:36:14.301Z,16.30
2018-09-05T20:38:42.547Z,15.90
2018-09-05T20:41:10.706Z,18.40
2018-09-05T20:43:38.906Z,15.17
2018-09-05T20:46:07.162Z,12.97
2018-09-05T20:48:35.502Z,20.60
2018-09-05T20:51:03.709Z,29.93
2018-09-05T20:53:31.900Z,18.63
2018-09-05T20:56:00.541Z,10.80
2018-09-05T20:58:28.959Z,16.47
2018-09-05T21:00:57.322Z,15.57
2018-09-05T21:03:25.515Z,11.80
2018-09-05T21:05:53.691Z,11.67
2018-09-05T21:08:21.887Z,10.83
2018-09-05T21:10:50.109Z,13.53
2018-09-05T21:13:18.283Z,11.57
2018-09-05T21:15:47.221Z,10.98
2018-09-05T21:18:15.427Z,11.57
2018-09-05T21:20:43.596Z,8.13
2018-09-05T21:23:11.769Z,8.30
2018-09-05T21:25:39.968Z,8.07
2018-09-05T21:28:08.135Z,9.60
2018-09-05T21:30:36.372Z,13.27
2018-09-05T21:33:04.580Z,8.53
2018-09-05T21:35:33.276Z,6.70
2018-09-05T21:38:01.448Z,9.40
2018-09-05T21:40:29.648Z,8.83
2018-09-05T21:42:57.836Z,7.47
2018-09-05T21:45:26.025Z,13.00
2018-09-05T21:47:54.238Z,9.77
2018-09-05T21:50:23.425Z,26.93
2018-09-05T21:52:51.703Z,21.77
2018-09-05T21:55:19.793Z,11.83
2018-09-05T21:57:47.966Z,12.57
2018-09-05T22:00:16.353Z,12.33
2018-09-05T22:02:44.541Z,11.33
2018-09-05T22:05:12.732Z,10.80
2018-09-05T22:07:40.908Z,8.73
2018-09-05T22:10:09.076Z,7.47
2018-09-05T22:12:37.256Z,9.97
2018-09-05T22:15:05.836Z,7.63
2018-09-05T22:17:34.053Z,6.17
2018-09-05T22:20:02.268Z,10.13
2018-09-05T22:22:30.469Z,8.47
2018-09-05T22:24:58.646Z,8.33
2018-09-05T22:27:26.862Z,11.47
2018-09-05T22:29:55.044Z,14.70
2018-09-05T22:32:23.293Z,11.57
2018-09-05T22:34:51.461Z,10.90
2018-09-05T22:37:19.648Z,21.13
2018-09-05T22:39:47.849Z,15.60
2018-09-05T22:42:16.053Z,25.00
2018-09-05T22:44:56.358Z,19.10
2018-09-05T22:47:41.693Z,14.97
2018-09-05T22:50:43.541Z,19.23
2018-09-05T22:53:26.278Z,17.40
2018-09-05T22:58:17.797Z,20.87
2018-09-05T23:03:01.895Z,19.40
2018-09-05T23:07:43.832Z,21.43
2018-09-05T23:10:23.791Z,20.80
2018-09-05T23:13:03.401Z,23.40
2018-09-05T23:15:43.046Z,26.47
2018-09-05T23:18:22.679Z,26.47
2018-09-05T23:21:23.302Z,18.23
2018-09-05T23:23:59.858Z,20.27
2018-09-05T23:26:28.249Z,28.50
2018-09-05T23:28:56.525Z,21.83
2018-09-05T23:31:24.905Z,24.33
2018-09-05T23:33:53.225Z,16.87
2018-09-05T23:36:21.726Z,15.00
2018-09-05T23:38:49.915Z,15.57
2018-09-05T23:41:18.101Z,17.83
2018-09-05T23:43:46.297Z,16.87
2018-09-05T23:46:14.525Z,16.17
2018-09-05T23:48:42.716Z,13.83
2018-09-05T23:51:12.010Z,29.20
2018-09-05T23:53:40.209Z,19.17
2018-09-05T23:56:08.405Z,12.80
2018-09-05T23:58:36.624Z,13.80
